WXM80 ListenWXM80 Stop

You find our weather info also at:

UK Metoffice

WeatherCloud

Weather Underground

Northeastern Weather Network

AWEKAS

Citizen Weather Observer Program (CWOP)

HAMweather, WeatherForYou, PWS Weather


Weather Underground History page Text

Daily Summary for February 7, 2018 Units:  Both    English   Metric
« Previous Day
Next Day »
Daily Weekly Monthly Yearly Custom
  High: Low: Average:
Temperature: 49.9 °F /  9.9 °C 26.8 °F /  -2.9 °C 34.2 °F /  1.2 °C
Dew Point: 49.4 °F /  9.7 °C 22.6 °F /  -5.2 °C 30.9 °F /  -0.6 °C
Humidity: 98 % 73 % 88 %
Wind Speed: 11.0 mph /  17.7 km/h - 5.5 mph /  8.9 km/h
Wind Gust: 21.9 mph /  35.2 km/h - -
Wind:- - SE
Pressure: 30.27 in /  1024.9 hPa 29.59 in /  1001.9 hPa -
Precipitation: 0.62 in /  15.75 mm    
Historical Graphs
 
 
Tabular Data for February 7, 2018
Time Temperature Dew Point Pressure Wind Wind Speed Wind Gust Humidity Rainfall Rate (Hourly)
00:02 26.8 °F /  -2.9 °C 23.7 °F /  -4.6 °C 30.25 in /  1024.3 hPa Calm     88 % 0.00 in /  0 mm
00:07 26.8 °F /  -2.9 °C 23.7 °F /  -4.6 °C 30.25 in /  1024.3 hPa NE 2.6 mph /  4.2 km/h 8.1 mph /  13 km/h 88 % 0.00 in /  0 mm
00:12 27.5 °F /  -2.5 °C 24.4 °F /  -4.2 °C 30.25 in /  1024.3 hPa ENE 5.1 mph /  8.2 km/h 10.4 mph /  16.7 km/h 88 % 0.00 in /  0 mm
00:17 28.4 °F /  -2 °C 25.0 °F /  -3.9 °C 30.25 in /  1024.3 hPa ENE 2.9 mph /  4.7 km/h 5.8 mph /  9.3 km/h 87 % 0.00 in /  0 mm
00:22 29.0 °F /  -1.7 °C 25.1 °F /  -3.8 °C 30.26 in /  1024.6 hPa ENE 4.4 mph /  7.1 km/h 8.1 mph /  13 km/h 85 % 0.00 in /  0 mm
00:27 29.4 °F /  -1.4 °C 25.2 °F /  -3.8 °C 30.26 in /  1024.6 hPa ENE 3.4 mph /  5.5 km/h 8.1 mph /  13 km/h 84 % 0.00 in /  0 mm
00:32 29.6 °F /  -1.3 °C 25.1 °F /  -3.8 °C 30.26 in /  1024.6 hPa ENE 2.9 mph /  4.7 km/h 7.0 mph /  11.3 km/h 83 % 0.00 in /  0 mm
00:37 29.8 °F /  -1.2 °C 25.0 °F /  -3.9 °C 30.26 in /  1024.6 hPa ENE 4.3 mph /  6.9 km/h 7.0 mph /  11.3 km/h 82 % 0.00 in /  0 mm
00:42 30.1 °F /  -1.1 °C 25.3 °F /  -3.7 °C 30.26 in /  1024.6 hPa ENE 3.5 mph /  5.6 km/h 5.8 mph /  9.3 km/h 82 % 0.00 in /  0 mm
00:48 30.3 °F /  -0.9 °C 24.9 °F /  -3.9 °C 30.26 in /  1024.6 hPa ENE 5.3 mph /  8.5 km/h 10.4 mph /  16.7 km/h 80 % 0.00 in /  0 mm
00:53 30.5 °F /  -0.8 °C 25.1 °F /  -3.8 °C 30.26 in /  1024.6 hPa ENE 5.0 mph /  8 km/h 8.1 mph /  13 km/h 80 % 0.00 in /  0 mm
00:58 30.6 °F /  -0.8 °C 24.9 °F /  -3.9 °C 30.26 in /  1024.6 hPa ENE 6.3 mph /  10.1 km/h 9.2 mph /  14.8 km/h 79 % 0.00 in /  0 mm
01:03 30.6 °F /  -0.8 °C 24.9 °F /  -3.9 °C 30.26 in /  1024.6 hPa NE 6.6 mph /  10.6 km/h 10.0 mph /  16.1 km/h 79 % 0.00 in /  0 mm
01:08 30.6 °F /  -0.8 °C 24.9 °F /  -3.9 °C 30.27 in /  1024.9 hPa ENE 4.4 mph /  7.1 km/h 6.9 mph /  11.1 km/h 79 % 0.00 in /  0 mm
01:13 30.6 °F /  -0.8 °C 24.9 °F /  -3.9 °C 30.26 in /  1024.6 hPa ENE 8.6 mph /  13.8 km/h 11.5 mph /  18.5 km/h 79 % 0.00 in /  0 mm
01:18 30.6 °F /  -0.8 °C 24.6 °F /  -4.1 °C 30.26 in /  1024.6 hPa East 6.0 mph /  9.7 km/h 10.4 mph /  16.7 km/h 78 % 0.00 in /  0 mm
01:23 30.6 °F /  -0.8 °C 24.6 °F /  -4.1 °C 30.26 in /  1024.6 hPa ENE 7.8 mph /  12.6 km/h 11.5 mph /  18.5 km/h 78 % 0.00 in /  0 mm
01:28 30.6 °F /  -0.8 °C 24.2 °F /  -4.3 °C 30.26 in /  1024.6 hPa ENE 6.3 mph /  10.1 km/h 10.4 mph /  16.7 km/h 77 % 0.00 in /  0 mm
01:33 30.4 °F /  -0.9 °C 24.1 °F /  -4.4 °C 30.26 in /  1024.6 hPa East 6.1 mph /  9.8 km/h 11.5 mph /  18.5 km/h 77 % 0.00 in /  0 mm
01:38 30.4 °F /  -0.9 °C 24.4 °F /  -4.2 °C 30.26 in /  1024.6 hPa ENE 6.8 mph /  10.9 km/h 9.2 mph /  14.8 km/h 78 % 0.00 in /  0 mm
01:43 30.3 °F /  -0.9 °C 24.3 °F /  -4.3 °C 30.26 in /  1024.6 hPa East 6.9 mph /  11.1 km/h 11.5 mph /  18.5 km/h 78 % 0.00 in /  0 mm
01:48 30.1 °F /  -1.1 °C 23.4 °F /  -4.8 °C 30.26 in /  1024.6 hPa NE 8.3 mph /  13.4 km/h 11.5 mph /  18.5 km/h 76 % 0.00 in /  0 mm
01:53 30.1 °F /  -1.1 °C 23.8 °F /  -4.6 °C 30.26 in /  1024.6 hPa ENE 6.4 mph /  10.3 km/h 8.1 mph /  13 km/h 77 % 0.00 in /  0 mm
01:58 30.0 °F /  -1.1 °C 23.7 °F /  -4.6 °C 30.25 in /  1024.3 hPa ENE 7.4 mph /  11.9 km/h 10.4 mph /  16.7 km/h 77 % 0.00 in /  0 mm
02:03 30.0 °F /  -1.1 °C 23.4 °F /  -4.8 °C 30.26 in /  1024.6 hPa ENE 9.7 mph /  15.6 km/h 11.5 mph /  18.5 km/h 76 % 0.00 in /  0 mm
02:08 30.0 °F /  -1.1 °C 23.4 °F /  -4.8 °C 30.26 in /  1024.6 hPa ENE 5.8 mph /  9.3 km/h 9.2 mph /  14.8 km/h 76 % 0.00 in /  0 mm
02:13 29.9 °F /  -1.2 °C 23.3 °F /  -4.8 °C 30.25 in /  1024.3 hPa ENE 8.5 mph /  13.7 km/h 11.5 mph /  18.5 km/h 76 % 0.00 in /  0 mm
02:18 29.9 °F /  -1.2 °C 22.9 °F /  -5.1 °C 30.25 in /  1024.3 hPa East 8.1 mph /  13 km/h 13.8 mph /  22.2 km/h 75 % 0.00 in /  0 mm
02:23 29.9 °F /  -1.2 °C 22.6 °F /  -5.2 °C 30.25 in /  1024.3 hPa East 7.5 mph /  12.1 km/h 10.4 mph /  16.7 km/h 74 % 0.00 in /  0 mm
02:28 29.9 °F /  -1.2 °C 22.6 °F /  -5.2 °C 30.25 in /  1024.3 hPa ENE 6.4 mph /  10.3 km/h 9.2 mph /  14.8 km/h 74 % 0.00 in /  0 mm
02:33 29.9 °F /  -1.2 °C 22.9 °F /  -5.1 °C 30.25 in /  1024.3 hPa East 8.9 mph /  14.3 km/h 10.4 mph /  16.7 km/h 75 % 0.00 in /  0 mm
02:39 30.0 °F /  -1.1 °C 23.0 °F /  -5 °C 30.25 in /  1024.3 hPa East 8.3 mph /  13.4 km/h 11.5 mph /  18.5 km/h 75 % 0.00 in /  0 mm
02:44 30.0 °F /  -1.1 °C 23.0 °F /  -5 °C 30.25 in /  1024.3 hPa ENE 9.0 mph /  14.5 km/h 10.0 mph /  16.1 km/h 75 % 0.00 in /  0 mm
02:49 30.0 °F /  -1.1 °C 23.0 °F /  -5 °C 30.25 in /  1024.3 hPa East 6.9 mph /  11.1 km/h 10.4 mph /  16.7 km/h 75 % 0.00 in /  0 mm
02:54 30.1 °F /  -1.1 °C 23.1 °F /  -4.9 °C 30.25 in /  1024.3 hPa ENE 5.3 mph /  8.5 km/h 9.2 mph /  14.8 km/h 75 % 0.00 in /  0 mm
02:59 30.1 °F /  -1.1 °C 23.4 °F /  -4.8 °C 30.25 in /  1024.3 hPa East 7.7 mph /  12.4 km/h 10.4 mph /  16.7 km/h 76 % 0.00 in /  0 mm
03:04 30.1 °F /  -1.1 °C 22.8 °F /  -5.1 °C 30.25 in /  1024.3 hPa ENE 8.5 mph /  13.7 km/h 11.5 mph /  18.5 km/h 74 % 0.00 in /  0 mm
03:09 30.2 °F /  -1 °C 22.9 °F /  -5.1 °C 30.25 in /  1024.3 hPa East 6.6 mph /  10.6 km/h 12.0 mph /  19.3 km/h 74 % 0.00 in /  0 mm
03:14 30.3 °F /  -0.9 °C 23.0 °F /  -5 °C 30.24 in /  1023.9 hPa ENE 7.9 mph /  12.7 km/h 10.4 mph /  16.7 km/h 74 % 0.00 in /  0 mm
03:19 30.3 °F /  -0.9 °C 23.3 °F /  -4.8 °C 30.24 in /  1023.9 hPa ENE 9.0 mph /  14.5 km/h 15.0 mph /  24.1 km/h 75 % 0.00 in /  0 mm
03:24 30.3 °F /  -0.9 °C 23.0 °F /  -5 °C 30.24 in /  1023.9 hPa ENE 7.7 mph /  12.4 km/h 12.7 mph /  20.4 km/h 74 % 0.00 in /  0 mm
03:29 30.4 °F /  -0.9 °C 23.1 °F /  -4.9 °C 30.23 in /  1023.6 hPa ENE 9.0 mph /  14.5 km/h 13.8 mph /  22.2 km/h 74 % 0.00 in /  0 mm
03:34 30.4 °F /  -0.9 °C 23.1 °F /  -4.9 °C 30.23 in /  1023.6 hPa ENE 9.7 mph /  15.6 km/h 13.8 mph /  22.2 km/h 74 % 0.00 in /  0 mm
03:39 30.5 °F /  -0.8 °C 23.2 °F /  -4.9 °C 30.23 in /  1023.6 hPa ENE 8.1 mph /  13 km/h 11.5 mph /  18.5 km/h 74 % 0.00 in /  0 mm
03:44 30.5 °F /  -0.8 °C 23.2 °F /  -4.9 °C 30.24 in /  1023.9 hPa East 8.3 mph /  13.4 km/h 13.8 mph /  22.2 km/h 74 % 0.00 in /  0 mm
03:49 30.5 °F /  -0.8 °C 22.9 °F /  -5.1 °C 30.25 in /  1024.3 hPa ENE 8.2 mph /  13.2 km/h 11.5 mph /  18.5 km/h 73 % 0.00 in /  0 mm
03:54 30.6 °F /  -0.8 °C 23.0 °F /  -5 °C 30.25 in /  1024.3 hPa East 6.7 mph /  10.8 km/h 10.4 mph /  16.7 km/h 73 % 0.00 in /  0 mm
03:59 30.6 °F /  -0.8 °C 23.3 °F /  -4.8 °C 30.24 in /  1023.9 hPa East 6.9 mph /  11.1 km/h 10.4 mph /  16.7 km/h 74 % 0.00 in /  0 mm
04:04 30.6 °F /  -0.8 °C 23.3 °F /  -4.8 °C 30.24 in /  1023.9 hPa ENE 7.2 mph /  11.6 km/h 11.0 mph /  17.7 km/h 74 % 0.00 in /  0 mm
04:09 30.6 °F /  -0.8 °C 23.6 °F /  -4.7 °C 30.24 in /  1023.9 hPa ENE 7.4 mph /  11.9 km/h 9.2 mph /  14.8 km/h 75 % 0.00 in /  0 mm
04:14 30.6 °F /  -0.8 °C 23.3 °F /  -4.8 °C 30.24 in /  1023.9 hPa ENE 10.1 mph /  16.3 km/h 13.8 mph /  22.2 km/h 74 % 0.00 in /  0 mm
04:19 30.6 °F /  -0.8 °C 23.3 °F /  -4.8 °C 30.24 in /  1023.9 hPa ENE 7.7 mph /  12.4 km/h 10.4 mph /  16.7 km/h 74 % 0.00 in /  0 mm
04:25 30.6 °F /  -0.8 °C 23.6 °F /  -4.7 °C 30.25 in /  1024.3 hPa ENE 7.7 mph /  12.4 km/h 9.2 mph /  14.8 km/h 75 % 0.00 in /  0 mm
04:30 30.6 °F /  -0.8 °C 23.3 °F /  -4.8 °C 30.24 in /  1023.9 hPa ENE 7.5 mph /  12.1 km/h 10.4 mph /  16.7 km/h 74 % 0.00 in /  0 mm
04:35 30.6 °F /  -0.8 °C 23.6 °F /  -4.7 °C 30.24 in /  1023.9 hPa East 8.0 mph /  12.9 km/h 12.0 mph /  19.3 km/h 75 % 0.00 in /  0 mm
04:40 30.6 °F /  -0.8 °C 23.6 °F /  -4.7 °C 30.24 in /  1023.9 hPa East 9.0 mph /  14.5 km/h 10.4 mph /  16.7 km/h 75 % 0.00 in /  0 mm
04:45 30.6 °F /  -0.8 °C 23.6 °F /  -4.7 °C 30.24 in /  1023.9 hPa ENE 6.7 mph /  10.8 km/h 9.2 mph /  14.8 km/h 75 % 0.00 in /  0 mm
04:50 30.6 °F /  -0.8 °C 23.6 °F /  -4.7 °C 30.23 in /  1023.6 hPa East 7.8 mph /  12.6 km/h 9.2 mph /  14.8 km/h 75 % 0.00 in /  0 mm
04:55 30.5 °F /  -0.8 °C 23.5 °F /  -4.7 °C 30.22 in /  1023.2 hPa ENE 8.6 mph /  13.8 km/h 11.5 mph /  18.5 km/h 75 % 0.00 in /  0 mm
05:00 30.5 °F /  -0.8 °C 23.2 °F /  -4.9 °C 30.22 in /  1023.2 hPa East 10.0 mph /  16.1 km/h 12.7 mph /  20.4 km/h 74 % 0.00 in /  0 mm
05:05 30.5 °F /  -0.8 °C 23.2 °F /  -4.9 °C 30.22 in /  1023.2 hPa East 8.1 mph /  13 km/h 11.5 mph /  18.5 km/h 74 % 0.00 in /  0 mm
05:10 30.5 °F /  -0.8 °C 23.2 °F /  -4.9 °C 30.23 in /  1023.6 hPa East 7.3 mph /  11.7 km/h 9.0 mph /  14.5 km/h 74 % 0.00 in /  0 mm
05:15 30.5 °F /  -0.8 °C 23.2 °F /  -4.9 °C 30.23 in /  1023.6 hPa East 7.3 mph /  11.7 km/h 8.1 mph /  13 km/h 74 % 0.00 in /  0 mm
05:20 30.5 °F /  -0.8 °C 23.5 °F /  -4.7 °C 30.24 in /  1023.9 hPa East 4.8 mph /  7.7 km/h 6.9 mph /  11.1 km/h 75 % 0.00 in /  0 mm
05:25 30.4 °F /  -0.9 °C 23.1 °F /  -4.9 °C 30.23 in /  1023.6 hPa East 6.6 mph /  10.6 km/h 8.0 mph /  12.9 km/h 74 % 0.00 in /  0 mm
05:30 30.3 °F /  -0.9 °C 23.3 °F /  -4.8 °C 30.24 in /  1023.9 hPa East 7.4 mph /  11.9 km/h 8.1 mph /  13 km/h 75 % 0.00 in /  0 mm
05:35 30.3 °F /  -0.9 °C 23.0 °F /  -5 °C 30.24 in /  1023.9 hPa East 7.6 mph /  12.2 km/h 9.2 mph /  14.8 km/h 74 % 0.00 in /  0 mm
05:40 30.3 °F /  -0.9 °C 23.3 °F /  -4.8 °C 30.24 in /  1023.9 hPa East 6.0 mph /  9.7 km/h 8.1 mph /  13 km/h 75 % 0.00 in /  0 mm
05:45 30.2 °F /  -1 °C 23.5 °F /  -4.7 °C 30.21 in /  1022.9 hPa East 7.0 mph /  11.3 km/h 9.2 mph /  14.8 km/h 76 % 0.00 in /  0 mm
05:51 30.2 °F /  -1 °C 23.5 °F /  -4.7 °C 30.22 in /  1023.2 hPa East 6.0 mph /  9.7 km/h 9.0 mph /  14.5 km/h 76 % 0.00 in /  0 mm
05:56 30.1 °F /  -1.1 °C 23.4 °F /  -4.8 °C 30.23 in /  1023.6 hPa East 6.0 mph /  9.7 km/h 10.0 mph /  16.1 km/h 76 % 0.00 in /  0 mm
06:01 30.1 °F /  -1.1 °C 23.4 °F /  -4.8 °C 30.22 in /  1023.2 hPa East 7.3 mph /  11.7 km/h 9.2 mph /  14.8 km/h 76 % 0.00 in /  0 mm
06:06 30.1 °F /  -1.1 °C 23.4 °F /  -4.8 °C 30.22 in /  1023.2 hPa East 8.0 mph /  12.9 km/h 12.0 mph /  19.3 km/h 76 % 0.00 in /  0 mm
06:11 30.1 °F /  -1.1 °C 23.4 °F /  -4.8 °C 30.22 in /  1023.2 hPa East 7.0 mph /  11.3 km/h 8.0 mph /  12.9 km/h 76 % 0.00 in /  0 mm
06:16 30.1 °F /  -1.1 °C 23.4 °F /  -4.8 °C 30.22 in /  1023.2 hPa East 8.0 mph /  12.9 km/h 10.0 mph /  16.1 km/h 76 % 0.00 in /  0 mm
06:21 30.1 °F /  -1.1 °C 23.8 °F /  -4.6 °C 30.20 in /  1022.6 hPa East 7.0 mph /  11.3 km/h 10.0 mph /  16.1 km/h 77 % 0.00 in /  0 mm
06:26 30.2 °F /  -1 °C 23.9 °F /  -4.5 °C 30.20 in /  1022.6 hPa East 8.0 mph /  12.9 km/h 12.0 mph /  19.3 km/h 77 % 0.00 in /  0 mm
06:31 30.3 °F /  -0.9 °C 23.9 °F /  -4.5 °C 30.20 in /  1022.6 hPa East 7.0 mph /  11.3 km/h 13.0 mph /  20.9 km/h 77 % 0.00 in /  0 mm
06:36 30.3 °F /  -0.9 °C 24.0 °F /  -4.4 °C 30.20 in /  1022.6 hPa East 9.1 mph /  14.6 km/h 13.8 mph /  22.2 km/h 77 % 0.00 in /  0 mm
06:41 30.4 °F /  -0.9 °C 24.0 °F /  -4.4 °C 30.19 in /  1022.2 hPa East 8.0 mph /  12.9 km/h 13.0 mph /  20.9 km/h 77 % 0.00 in /  0 mm
06:46 30.4 °F /  -0.9 °C 24.4 °F /  -4.2 °C 30.18 in /  1021.9 hPa East 9.0 mph /  14.5 km/h 14.0 mph /  22.5 km/h 78 % 0.00 in /  0 mm
06:51 30.5 °F /  -0.8 °C 24.5 °F /  -4.2 °C 30.18 in /  1021.9 hPa East 7.0 mph /  11.3 km/h 13.0 mph /  20.9 km/h 78 % 0.00 in /  0 mm
06:56 30.6 °F /  -0.8 °C 24.5 °F /  -4.2 °C 30.19 in /  1022.2 hPa East 10.0 mph /  16.1 km/h 14.0 mph /  22.5 km/h 78 % 0.00 in /  0 mm
07:01 30.6 °F /  -0.8 °C 24.2 °F /  -4.3 °C 30.18 in /  1021.9 hPa East 9.8 mph /  15.8 km/h 12.7 mph /  20.4 km/h 77 % 0.00 in /  0 mm
07:06 30.6 °F /  -0.8 °C 24.2 °F /  -4.3 °C 30.18 in /  1021.9 hPa East 9.0 mph /  14.5 km/h 14.0 mph /  22.5 km/h 77 % 0.00 in /  0 mm
07:11 30.7 °F /  -0.7 °C 24.7 °F /  -4.1 °C 30.18 in /  1021.9 hPa East 7.0 mph /  11.3 km/h 10.0 mph /  16.1 km/h 78 % 0.00 in /  0 mm
07:16 30.7 °F /  -0.7 °C 24.7 °F /  -4.1 °C 30.18 in /  1021.9 hPa East 9.0 mph /  14.5 km/h 14.0 mph /  22.5 km/h 78 % 0.00 in /  0 mm
07:21 30.8 °F /  -0.7 °C 24.4 °F /  -4.2 °C 30.18 in /  1021.9 hPa East 7.1 mph /  11.4 km/h 11.5 mph /  18.5 km/h 77 % 0.00 in /  0 mm
07:26 30.9 °F /  -0.6 °C 24.5 °F /  -4.2 °C 30.17 in /  1021.6 hPa East 9.0 mph /  14.5 km/h 14.0 mph /  22.5 km/h 77 % 0.00 in /  0 mm
07:31 31.0 °F /  -0.6 °C 24.6 °F /  -4.1 °C 30.16 in /  1021.2 hPa East 9.0 mph /  14.5 km/h 13.0 mph /  20.9 km/h 77 % 0.00 in /  0 mm
07:36 31.0 °F /  -0.6 °C 24.6 °F /  -4.1 °C 30.16 in /  1021.2 hPa East 10.0 mph /  16.1 km/h 14.0 mph /  22.5 km/h 77 % 0.00 in /  0 mm
07:41 31.0 °F /  -0.6 °C 24.6 °F /  -4.1 °C 30.16 in /  1021.2 hPa East 9.0 mph /  14.5 km/h 15.0 mph /  24.1 km/h 77 % 0.00 in /  0 mm
07:46 31.1 °F /  -0.5 °C 25.0 °F /  -3.9 °C 30.16 in /  1021.2 hPa East 7.0 mph /  11.3 km/h 12.0 mph /  19.3 km/h 78 % 0.00 in /  0 mm
07:51 31.1 °F /  -0.5 °C 25.0 °F /  -3.9 °C 30.16 in /  1021.2 hPa East 8.0 mph /  12.9 km/h 13.0 mph /  20.9 km/h 78 % 0.00 in /  0 mm
07:56 31.1 °F /  -0.5 °C 25.0 °F /  -3.9 °C 30.16 in /  1021.2 hPa East 9.0 mph /  14.5 km/h 13.0 mph /  20.9 km/h 78 % 0.00 in /  0 mm
08:01 31.1 °F /  -0.5 °C 24.7 °F /  -4.1 °C 30.16 in /  1021.2 hPa East 8.7 mph /  14 km/h 11.5 mph /  18.5 km/h 77 % 0.00 in /  0 mm
08:06 31.2 °F /  -0.4 °C 24.8 °F /  -4 °C 30.15 in /  1020.9 hPa East 7.0 mph /  11.3 km/h 13.0 mph /  20.9 km/h 77 % 0.00 in /  0 mm
08:11 31.1 °F /  -0.5 °C 24.7 °F /  -4.1 °C 30.15 in /  1020.9 hPa ENE 8.0 mph /  12.9 km/h 11.5 mph /  18.5 km/h 77 % 0.00 in /  0 mm
08:16 31.2 °F /  -0.4 °C 24.8 °F /  -4 °C 30.14 in /  1020.5 hPa East 8.8 mph /  14.2 km/h 11.0 mph /  17.7 km/h 77 % 0.00 in /  0 mm
08:21 31.2 °F /  -0.4 °C 25.1 °F /  -3.8 °C 30.14 in /  1020.5 hPa East 7.0 mph /  11.3 km/h 9.0 mph /  14.5 km/h 78 % 0.00 in /  0 mm
08:26 31.2 °F /  -0.4 °C 25.1 °F /  -3.8 °C 30.15 in /  1020.9 hPa East 7.0 mph /  11.3 km/h 12.0 mph /  19.3 km/h 78 % 0.00 in /  0 mm
08:31 31.2 °F /  -0.4 °C 25.1 °F /  -3.8 °C 30.14 in /  1020.5 hPa East 7.5 mph /  12.1 km/h 9.2 mph /  14.8 km/h 78 % 0.00 in /  0 mm
08:36 31.2 °F /  -0.4 °C 25.1 °F /  -3.8 °C 30.14 in /  1020.5 hPa East 7.0 mph /  11.3 km/h 10.0 mph /  16.1 km/h 78 % 0.00 in /  0 mm
08:41 31.3 °F /  -0.4 °C 25.5 °F /  -3.6 °C 30.13 in /  1020.2 hPa East 7.0 mph /  11.3 km/h 10.0 mph /  16.1 km/h 79 % 0.00 in /  0 mm
08:46 31.3 °F /  -0.4 °C 25.5 °F /  -3.6 °C 30.13 in /  1020.2 hPa East 7.0 mph /  11.3 km/h 10.0 mph /  16.1 km/h 79 % 0.00 in /  0 mm
08:51 31.4 °F /  -0.3 °C 25.6 °F /  -3.6 °C 30.13 in /  1020.2 hPa East 6.0 mph /  9.7 km/h 9.0 mph /  14.5 km/h 79 % 0.00 in /  0 mm
08:56 31.4 °F /  -0.3 °C 25.6 °F /  -3.6 °C 30.13 in /  1020.2 hPa East 7.0 mph /  11.3 km/h 9.0 mph /  14.5 km/h 79 % 0.00 in /  0 mm
09:01 31.4 °F /  -0.3 °C 25.9 °F /  -3.4 °C 30.13 in /  1020.2 hPa East 6.3 mph /  10.1 km/h 8.1 mph /  13 km/h 80 % 0.00 in /  0 mm
09:06 31.5 °F /  -0.3 °C 26.0 °F /  -3.3 °C 30.13 in /  1020.2 hPa East 7.0 mph /  11.3 km/h 9.0 mph /  14.5 km/h 80 % 0.00 in /  0 mm
09:11 31.5 °F /  -0.3 °C 26.3 °F /  -3.2 °C 30.12 in /  1019.9 hPa East 6.0 mph /  9.7 km/h 10.0 mph /  16.1 km/h 81 % 0.00 in /  0 mm
09:16 31.4 °F /  -0.3 °C 26.5 °F /  -3.1 °C 30.12 in /  1019.9 hPa ENE 6.6 mph /  10.6 km/h 8.1 mph /  13 km/h 82 % 0.00 in /  0 mm
09:21 31.2 °F /  -0.4 °C 26.7 °F /  -2.9 °C 30.12 in /  1019.9 hPa East 5.0 mph /  8 km/h 12.0 mph /  19.3 km/h 83 % 0.00 in /  0 mm
09:26 31.1 °F /  -0.5 °C 26.8 °F /  -2.9 °C 30.12 in /  1019.9 hPa East 4.7 mph /  7.6 km/h 6.0 mph /  9.7 km/h 84 % 0.00 in /  0 mm
09:31 31.0 °F /  -0.6 °C 27.0 °F /  -2.8 °C 30.11 in /  1019.5 hPa East 5.0 mph /  8 km/h 7.0 mph /  11.3 km/h 85 % 0.00 in /  0 mm
09:36 30.8 °F /  -0.7 °C 27.1 °F /  -2.7 °C 30.11 in /  1019.5 hPa East 6.0 mph /  9.7 km/h 8.0 mph /  12.9 km/h 86 % 0.00 in /  0 mm
09:41 30.7 °F /  -0.7 °C 27.3 °F /  -2.6 °C 30.11 in /  1019.5 hPa East 5.0 mph /  8 km/h 7.0 mph /  11.3 km/h 87 % 0.00 in /  0 mm
09:46 30.5 °F /  -0.8 °C 27.1 °F /  -2.7 °C 30.11 in /  1019.5 hPa East 5.0 mph /  8 km/h 7.0 mph /  11.3 km/h 87 % 0.00 in /  0 mm
09:51 30.5 °F /  -0.8 °C 27.4 °F /  -2.6 °C 30.10 in /  1019.2 hPa ENE 4.4 mph /  7.1 km/h 6.9 mph /  11.1 km/h 88 % 0.00 in /  0 mm
09:56 30.5 °F /  -0.8 °C 27.6 °F /  -2.4 °C 30.09 in /  1018.8 hPa East 3.0 mph /  4.8 km/h 7.0 mph /  11.3 km/h 89 % 0.00 in /  0 mm
10:01 30.6 °F /  -0.8 °C 27.7 °F /  -2.4 °C 30.09 in /  1018.8 hPa East 5.0 mph /  8 km/h 5.8 mph /  9.3 km/h 89 % 0.00 in /  0 mm
10:06 30.6 °F /  -0.8 °C 28.0 °F /  -2.2 °C 30.09 in /  1018.8 hPa ENE 3.0 mph /  4.8 km/h 5.0 mph /  8 km/h 90 % 0.00 in /  0 mm
10:11 30.7 °F /  -0.7 °C 28.1 °F /  -2.2 °C 30.09 in /  1018.8 hPa ENE 3.4 mph /  5.5 km/h 4.6 mph /  7.4 km/h 90 % 0.00 in /  0 mm
10:16 30.8 °F /  -0.7 °C 28.2 °F /  -2.1 °C 30.08 in /  1018.5 hPa ENE 4.7 mph /  7.6 km/h 6.0 mph /  9.7 km/h 90 % 0.00 in /  0 mm
10:21 30.8 °F /  -0.7 °C 28.2 °F /  -2.1 °C 30.07 in /  1018.2 hPa ENE 4.0 mph /  6.4 km/h 6.9 mph /  11.1 km/h 90 % 0.00 in /  0 mm
10:26 30.9 °F /  -0.6 °C 28.6 °F /  -1.9 °C 30.07 in /  1018.2 hPa East 3.5 mph /  5.6 km/h 6.9 mph /  11.1 km/h 91 % 0.00 in /  0 mm
10:31 31.0 °F /  -0.6 °C 28.7 °F /  -1.8 °C 30.07 in /  1018.2 hPa East 3.7 mph /  6 km/h 6.0 mph /  9.7 km/h 91 % 0.00 in /  0 mm
10:36 31.1 °F /  -0.5 °C 28.8 °F /  -1.8 °C 30.05 in /  1017.5 hPa East 4.2 mph /  6.8 km/h 7.0 mph /  11.3 km/h 91 % 0.00 in /  0 mm
10:41 31.1 °F /  -0.5 °C 28.8 °F /  -1.8 °C 30.04 in /  1017.2 hPa ENE 4.9 mph /  7.9 km/h 6.9 mph /  11.1 km/h 91 % 0.00 in /  0 mm
10:46 31.2 °F /  -0.4 °C 29.1 °F /  -1.6 °C 30.04 in /  1017.2 hPa ENE 5.2 mph /  8.4 km/h 9.0 mph /  14.5 km/h 92 % 0.00 in /  0 mm
10:51 31.3 °F /  -0.4 °C 29.2 °F /  -1.6 °C 30.04 in /  1017.2 hPa East 5.7 mph /  9.2 km/h 10.4 mph /  16.7 km/h 92 % 0.00 in /  0 mm
10:56 31.4 °F /  -0.3 °C 29.3 °F /  -1.5 °C 30.03 in /  1016.8 hPa ENE 4.3 mph /  6.9 km/h 5.8 mph /  9.3 km/h 92 % 0.00 in /  0 mm
11:01 31.5 °F /  -0.3 °C 29.4 °F /  -1.4 °C 30.03 in /  1016.8 hPa East 3.9 mph /  6.3 km/h 5.0 mph /  8 km/h 92 % 0.00 in /  0 mm
11:06 31.5 °F /  -0.3 °C 29.4 °F /  -1.4 °C 30.03 in /  1016.8 hPa East 3.7 mph /  6 km/h 6.9 mph /  11.1 km/h 92 % 0.00 in /  0 mm
11:12 31.6 °F /  -0.2 °C 29.5 °F /  -1.4 °C 30.01 in /  1016.1 hPa East 5.8 mph /  9.3 km/h 6.9 mph /  11.1 km/h 92 % 0.00 in /  0 mm
11:17 31.7 °F /  -0.2 °C 29.9 °F /  -1.2 °C 30.02 in /  1016.5 hPa ENE 5.2 mph /  8.4 km/h 8.1 mph /  13 km/h 93 % 0.00 in /  0 mm
11:22 31.7 °F /  -0.2 °C 29.9 °F /  -1.2 °C 30.02 in /  1016.5 hPa ENE 5.9 mph /  9.5 km/h 8.1 mph /  13 km/h 93 % 0.00 in /  0 mm
11:27 31.8 °F /  -0.1 °C 30.0 °F /  -1.1 °C 30.02 in /  1016.5 hPa ENE 4.5 mph /  7.2 km/h 6.9 mph /  11.1 km/h 93 % 0.00 in /  0 mm
11:32 31.9 °F /  -0.1 °C 30.1 °F /  -1.1 °C 30.01 in /  1016.1 hPa ENE 4.5 mph /  7.2 km/h 7.0 mph /  11.3 km/h 93 % 0.00 in /  0 mm
11:37 32.1 °F /  0.1 °C 30.3 °F /  -0.9 °C 30.00 in /  1015.8 hPa ENE 4.4 mph /  7.1 km/h 8.1 mph /  13 km/h 93 % 0.00 in /  0 mm
11:42 32.2 °F /  0.1 °C 30.4 °F /  -0.9 °C 29.99 in /  1015.5 hPa East 4.8 mph /  7.7 km/h 6.9 mph /  11.1 km/h 93 % 0.00 in /  0 mm
11:47 32.3 °F /  0.2 °C 30.5 °F /  -0.8 °C 29.99 in /  1015.5 hPa East 5.5 mph /  8.9 km/h 6.9 mph /  11.1 km/h 93 % 0.00 in /  0 mm
11:52 32.3 °F /  0.2 °C 30.5 °F /  -0.8 °C 29.98 in /  1015.1 hPa East 6.2 mph /  10 km/h 8.1 mph /  13 km/h 93 % 0.00 in /  0 mm
11:57 32.4 °F /  0.2 °C 30.6 °F /  -0.8 °C 29.97 in /  1014.8 hPa East 5.5 mph /  8.9 km/h 6.0 mph /  9.7 km/h 93 % 0.00 in /  0 mm
12:02 32.5 °F /  0.3 °C 30.7 °F /  -0.7 °C 29.97 in /  1014.8 hPa East 3.5 mph /  5.6 km/h 4.6 mph /  7.4 km/h 93 % 0.00 in /  0 mm
12:07 32.6 °F /  0.3 °C 31.1 °F /  -0.5 °C 29.96 in /  1014.4 hPa ENE 4.9 mph /  7.9 km/h 6.9 mph /  11.1 km/h 94 % 0.00 in /  0 mm
12:12 32.6 °F /  0.3 °C 31.1 °F /  -0.5 °C 29.95 in /  1014.1 hPa East 5.2 mph /  8.4 km/h 6.9 mph /  11.1 km/h 94 % 0.00 in /  0 mm
12:17 32.7 °F /  0.4 °C 31.2 °F /  -0.4 °C 29.95 in /  1014.1 hPa East 5.6 mph /  9 km/h 7.0 mph /  11.3 km/h 94 % 0.00 in /  0 mm
12:22 32.8 °F /  0.4 °C 31.3 °F /  -0.4 °C 29.94 in /  1013.8 hPa ENE 4.9 mph /  7.9 km/h 8.1 mph /  13 km/h 94 % 0.00 in /  0 mm
12:27 32.8 °F /  0.4 °C 31.3 °F /  -0.4 °C 29.93 in /  1013.4 hPa East 5.9 mph /  9.5 km/h 6.9 mph /  11.1 km/h 94 % 0.00 in /  0 mm
12:32 32.8 °F /  0.4 °C 31.3 °F /  -0.4 °C 29.92 in /  1013.1 hPa East 5.1 mph /  8.2 km/h 8.1 mph /  13 km/h 94 % 0.00 in /  0 mm
12:37 32.9 °F /  0.5 °C 31.4 °F /  -0.3 °C 29.91 in /  1012.8 hPa East 6.7 mph /  10.8 km/h 8.1 mph /  13 km/h 94 % 0.01 in /  0.25 mm
12:42 32.9 °F /  0.5 °C 31.4 °F /  -0.3 °C 29.92 in /  1013.1 hPa East 3.3 mph /  5.3 km/h 5.8 mph /  9.3 km/h 94 % 0.01 in /  0.25 mm
12:47 32.9 °F /  0.5 °C 31.4 °F /  -0.3 °C 29.91 in /  1012.8 hPa ENE 3.5 mph /  5.6 km/h 6.9 mph /  11.1 km/h 94 % 0.02 in /  0.51 mm
12:49 32.9 °F /  0.5 °C 31.4 °F /  -0.3 °C 29.92 in /  1013.1 hPa ENE 3.8 mph /  6.1 km/h 5.0 mph /  8 km/h 94 % 0.02 in /  0.51 mm
12:54 33.0 °F /  0.6 °C 31.5 °F /  -0.3 °C 29.91 in /  1012.8 hPa ENE 4.6 mph /  7.4 km/h 8.1 mph /  13 km/h 94 % 0.02 in /  0.51 mm
12:59 33.0 °F /  0.6 °C 31.5 °F /  -0.3 °C 29.90 in /  1012.4 hPa East 5.1 mph /  8.2 km/h 8.1 mph /  13 km/h 94 % 0.03 in /  0.76 mm
13:04 33.0 °F /  0.6 °C 31.5 °F /  -0.3 °C 29.90 in /  1012.4 hPa East 5.5 mph /  8.9 km/h 9.2 mph /  14.8 km/h 94 % 0.04 in /  1.02 mm
13:09 32.9 °F /  0.5 °C 31.6 °F /  -0.2 °C 29.89 in /  1012.1 hPa ENE 4.9 mph /  7.9 km/h 8.1 mph /  13 km/h 95 % 0.05 in /  1.27 mm
13:14 32.8 °F /  0.4 °C 31.5 °F /  -0.3 °C 29.89 in /  1012.1 hPa ENE 4.9 mph /  7.9 km/h 8.1 mph /  13 km/h 95 % 0.05 in /  1.27 mm
13:19 32.8 °F /  0.4 °C 31.5 °F /  -0.3 °C 29.89 in /  1012.1 hPa East 1.9 mph /  3.1 km/h 4.6 mph /  7.4 km/h 95 % 0.06 in /  1.52 mm
13:24 32.7 °F /  0.4 °C 31.4 °F /  -0.3 °C 29.89 in /  1012.1 hPa ENE 5.7 mph /  9.2 km/h 8.1 mph /  13 km/h 95 % 0.06 in /  1.52 mm
13:29 32.7 °F /  0.4 °C 31.4 °F /  -0.3 °C 29.88 in /  1011.7 hPa ENE 3.3 mph /  5.3 km/h 4.0 mph /  6.4 km/h 95 % 0.07 in /  1.78 mm
13:34 32.7 °F /  0.4 °C 31.4 °F /  -0.3 °C 29.87 in /  1011.4 hPa ENE 3.7 mph /  6 km/h 5.8 mph /  9.3 km/h 95 % 0.07 in /  1.78 mm
13:39 32.6 °F /  0.3 °C 31.3 °F /  -0.4 °C 29.86 in /  1011.1 hPa ENE 5.0 mph /  8 km/h 6.9 mph /  11.1 km/h 95 % 0.07 in /  1.78 mm
13:44 32.5 °F /  0.3 °C 31.2 °F /  -0.4 °C 29.86 in /  1011.1 hPa ENE 4.3 mph /  6.9 km/h 8.1 mph /  13 km/h 95 % 0.07 in /  1.78 mm
13:49 32.5 °F /  0.3 °C 31.2 °F /  -0.4 °C 29.85 in /  1010.7 hPa ENE 6.3 mph /  10.1 km/h 9.2 mph /  14.8 km/h 95 % 0.07 in /  1.78 mm
13:54 32.4 °F /  0.2 °C 31.1 °F /  -0.5 °C 29.85 in /  1010.7 hPa NE 3.4 mph /  5.5 km/h 5.8 mph /  9.3 km/h 95 % 0.06 in /  1.52 mm
13:59 32.4 °F /  0.2 °C 31.1 °F /  -0.5 °C 29.85 in /  1010.7 hPa ENE 5.2 mph /  8.4 km/h 7.0 mph /  11.3 km/h 95 % 0.06 in /  1.52 mm
14:04 32.4 °F /  0.2 °C 31.1 °F /  -0.5 °C 29.84 in /  1010.4 hPa ENE 3.4 mph /  5.5 km/h 4.6 mph /  7.4 km/h 95 % 0.06 in /  1.52 mm
14:09 32.4 °F /  0.2 °C 31.1 °F /  -0.5 °C 29.84 in /  1010.4 hPa ENE 4.1 mph /  6.6 km/h 5.8 mph /  9.3 km/h 95 % 0.06 in /  1.52 mm
14:15 32.4 °F /  0.2 °C 31.4 °F /  -0.3 °C 29.83 in /  1010 hPa ENE 3.6 mph /  5.8 km/h 8.1 mph /  13 km/h 96 % 0.07 in /  1.78 mm
14:20 32.4 °F /  0.2 °C 31.4 °F /  -0.3 °C 29.81 in /  1009.4 hPa ENE 4.2 mph /  6.8 km/h 7.0 mph /  11.3 km/h 96 % 0.07 in /  1.78 mm
14:25 32.4 °F /  0.2 °C 31.1 °F /  -0.5 °C 29.80 in /  1009 hPa ENE 5.6 mph /  9 km/h 8.1 mph /  13 km/h 95 % 0.08 in /  2.03 mm
14:30 32.4 °F /  0.2 °C 31.1 °F /  -0.5 °C 29.79 in /  1008.7 hPa ENE 4.4 mph /  7.1 km/h 6.9 mph /  11.1 km/h 95 % 0.08 in /  2.03 mm
14:35 32.4 °F /  0.2 °C 31.4 °F /  -0.3 °C 29.78 in /  1008.4 hPa ENE 3.5 mph /  5.6 km/h 4.6 mph /  7.4 km/h 96 % 0.08 in /  2.03 mm
14:40 32.5 °F /  0.3 °C 31.5 °F /  -0.3 °C 29.77 in /  1008 hPa ENE 3.8 mph /  6.1 km/h 8.0 mph /  12.9 km/h 96 % 0.09 in /  2.29 mm
14:45 32.4 °F /  0.2 °C 31.4 °F /  -0.3 °C 29.77 in /  1008 hPa ENE 3.9 mph /  6.3 km/h 5.0 mph /  8 km/h 96 % 0.10 in /  2.54 mm
14:50 32.4 °F /  0.2 °C 31.4 °F /  -0.3 °C 29.76 in /  1007.7 hPa ENE 2.5 mph /  4 km/h 3.5 mph /  5.6 km/h 96 % 0.09 in /  2.29 mm
14:55 32.5 °F /  0.3 °C 31.5 °F /  -0.3 °C 29.76 in /  1007.7 hPa Calm     96 % 0.10 in /  2.54 mm
15:00 32.5 °F /  0.3 °C 31.5 °F /  -0.3 °C 29.77 in /  1008 hPa Calm     96 % 0.11 in /  2.79 mm
15:05 32.5 °F /  0.3 °C 31.5 °F /  -0.3 °C 29.75 in /  1007.3 hPa Calm     96 % 0.11 in /  2.79 mm
15:10 32.5 °F /  0.3 °C 31.5 °F /  -0.3 °C 29.75 in /  1007.3 hPa Calm     96 % 0.11 in /  2.79 mm
15:15 32.5 °F /  0.3 °C 31.5 °F /  -0.3 °C 29.74 in /  1007 hPa Calm     96 % 0.11 in /  2.79 mm
15:20 32.5 °F /  0.3 °C 31.5 °F /  -0.3 °C 29.74 in /  1007 hPa Calm     96 % 0.10 in /  2.54 mm
15:25 32.6 °F /  0.3 °C 31.6 °F /  -0.2 °C 29.73 in /  1006.7 hPa Calm     96 % 0.10 in /  2.54 mm
15:30 32.6 °F /  0.3 °C 31.6 °F /  -0.2 °C 29.73 in /  1006.7 hPa Calm     96 % 0.09 in /  2.29 mm
15:36 32.7 °F /  0.4 °C 31.7 °F /  -0.2 °C 29.73 in /  1006.7 hPa Calm     96 % 0.00 in /  0 mm
15:41 32.7 °F /  0.4 °C 31.7 °F /  -0.2 °C 29.72 in /  1006.3 hPa Calm     96 % 0.09 in /  2.29 mm
15:46 32.8 °F /  0.4 °C 31.8 °F /  -0.1 °C 29.72 in /  1006.3 hPa Calm     96 % 0.09 in /  2.29 mm
15:51 32.8 °F /  0.4 °C 31.8 °F /  -0.1 °C 29.70 in /  1005.6 hPa Calm     96 % 0.10 in /  2.54 mm
15:56 32.9 °F /  0.5 °C 31.9 °F /  -0.1 °C 29.70 in /  1005.6 hPa Calm     96 % 0.09 in /  2.29 mm
16:01 32.9 °F /  0.5 °C 31.9 °F /  -0.1 °C 29.69 in /  1005.3 hPa Calm     96 % 0.09 in /  2.29 mm
16:06 32.9 °F /  0.5 °C 31.9 °F /  -0.1 °C 29.68 in /  1005 hPa Calm     96 % 0.08 in /  2.03 mm
16:11 33.0 °F /  0.6 °C 32.0 °F /  0 °C 29.67 in /  1004.6 hPa Calm     96 % 0.07 in /  1.78 mm
16:16 33.0 °F /  0.6 °C 32.0 °F /  0 °C 29.66 in /  1004.3 hPa Calm     96 % 0.07 in /  1.78 mm
16:21 33.1 °F /  0.6 °C 32.1 °F /  0.1 °C 29.66 in /  1004.3 hPa Calm     96 % 0.06 in /  1.52 mm
16:26 33.2 °F /  0.7 °C 32.2 °F /  0.1 °C 29.67 in /  1004.6 hPa Calm     96 % 0.06 in /  1.52 mm
16:31 33.2 °F /  0.7 °C 32.4 °F /  0.2 °C 29.66 in /  1004.3 hPa Calm     97 % 0.06 in /  1.52 mm
16:37 33.3 °F /  0.7 °C 32.3 °F /  0.2 °C 29.65 in /  1003.9 hPa Calm     96 % 0.05 in /  1.27 mm
16:42 33.4 °F /  0.8 °C 32.4 °F /  0.2 °C 29.64 in /  1003.6 hPa Calm     96 % 0.05 in /  1.27 mm
16:47 33.4 °F /  0.8 °C 32.4 °F /  0.2 °C 29.63 in /  1003.3 hPa Calm     96 % 0.04 in /  1.02 mm
16:52 33.9 °F /  1.1 °C 33.1 °F /  0.6 °C 29.63 in /  1003.3 hPa Calm     97 % 0.03 in /  0.76 mm
16:57 34.7 °F /  1.5 °C 33.9 °F /  1.1 °C 29.62 in /  1002.9 hPa Calm     97 % 0.03 in /  0.76 mm
17:02 35.8 °F /  2.1 °C 35.0 °F /  1.7 °C 29.62 in /  1002.9 hPa South 4.3 mph /  6.9 km/h 10.0 mph /  16.1 km/h 97 % 0.02 in /  0.51 mm
17:07 37.8 °F /  3.2 °C 37.0 °F /  2.8 °C 29.61 in /  1002.6 hPa SSW 6.0 mph /  9.7 km/h 11.5 mph /  18.5 km/h 97 % 0.03 in /  0.76 mm
17:12 39.5 °F /  4.2 °C 39.0 °F /  3.9 °C 29.60 in /  1002.3 hPa SSW 6.1 mph /  9.8 km/h 10.4 mph /  16.7 km/h 98 % 0.02 in /  0.51 mm
17:17 41.6 °F /  5.3 °C 41.1 °F /  5.1 °C 29.60 in /  1002.3 hPa SSW 3.5 mph /  5.6 km/h 11.0 mph /  17.7 km/h 98 % 0.02 in /  0.51 mm
17:22 43.3 °F /  6.3 °C 42.8 °F /  6 °C 29.61 in /  1002.6 hPa SSW 4.7 mph /  7.6 km/h 11.5 mph /  18.5 km/h 98 % 0.03 in /  0.76 mm
17:27 45.1 °F /  7.3 °C 44.6 °F /  7 °C 29.60 in /  1002.3 hPa South 7.8 mph /  12.6 km/h 11.5 mph /  18.5 km/h 98 % 0.03 in /  0.76 mm
17:32 46.3 °F /  7.9 °C 45.8 °F /  7.7 °C 29.60 in /  1002.3 hPa SSW 6.7 mph /  10.8 km/h 12.7 mph /  20.4 km/h 98 % 0.03 in /  0.76 mm
17:37 47.2 °F /  8.4 °C 46.7 °F /  8.2 °C 29.59 in /  1001.9 hPa South 9.8 mph /  15.8 km/h 18.0 mph /  29 km/h 98 % 0.03 in /  0.76 mm
17:42 48.3 °F /  9.1 °C 47.8 °F /  8.8 °C 29.59 in /  1001.9 hPa South 6.2 mph /  10 km/h 11.5 mph /  18.5 km/h 98 % 0.03 in /  0.76 mm
17:47 48.8 °F /  9.3 °C 48.3 °F /  9.1 °C 29.60 in /  1002.3 hPa SSW 6.9 mph /  11.1 km/h 11.5 mph /  18.5 km/h 98 % 0.03 in /  0.76 mm
17:52 49.2 °F /  9.6 °C 48.7 °F /  9.3 °C 29.60 in /  1002.3 hPa SSW 10.7 mph /  17.2 km/h 21.9 mph /  35.2 km/h 98 % 0.04 in /  1.02 mm
17:57 49.6 °F /  9.8 °C 49.1 °F /  9.5 °C 29.59 in /  1001.9 hPa SSW 9.0 mph /  14.5 km/h 18.4 mph /  29.6 km/h 98 % 0.05 in /  1.27 mm
18:02 49.8 °F /  9.9 °C 49.3 °F /  9.6 °C 29.59 in /  1001.9 hPa SSW 4.6 mph /  7.4 km/h 9.2 mph /  14.8 km/h 98 % 0.06 in /  1.52 mm
18:07 49.9 °F /  9.9 °C 49.4 °F /  9.7 °C 29.61 in /  1002.6 hPa WSW 8.4 mph /  13.5 km/h 17.3 mph /  27.8 km/h 98 % 0.06 in /  1.52 mm
18:13 49.8 °F /  9.9 °C 49.3 °F /  9.6 °C 29.62 in /  1002.9 hPa WSW 7.8 mph /  12.6 km/h 16.1 mph /  25.9 km/h 98 % 0.09 in /  2.29 mm
18:18 49.5 °F /  9.7 °C 49.0 °F /  9.4 °C 29.63 in /  1003.3 hPa West 6.8 mph /  10.9 km/h 12.7 mph /  20.4 km/h 98 % 0.13 in /  3.3 mm
18:23 48.8 °F /  9.3 °C 48.3 °F /  9.1 °C 29.63 in /  1003.3 hPa West 4.3 mph /  6.9 km/h 9.2 mph /  14.8 km/h 98 % 0.15 in /  3.81 mm
18:28 47.9 °F /  8.8 °C 47.4 °F /  8.6 °C 29.64 in /  1003.6 hPa West 3.7 mph /  6 km/h 6.0 mph /  9.7 km/h 98 % 0.17 in /  4.32 mm
18:33 47.3 °F /  8.5 °C 46.8 °F /  8.2 °C 29.63 in /  1003.3 hPa SSW 3.5 mph /  5.6 km/h 6.9 mph /  11.1 km/h 98 % 0.18 in /  4.57 mm
18:38 46.5 °F /  8.1 °C 45.7 °F /  7.6 °C 29.63 in /  1003.3 hPa West 0.2 mph /  0.3 km/h 1.2 mph /  1.9 km/h 97 % 0.18 in /  4.57 mm
18:43 45.6 °F /  7.6 °C 44.8 °F /  7.1 °C 29.63 in /  1003.3 hPa WSW 4.9 mph /  7.9 km/h 10.4 mph /  16.7 km/h 97 % 0.18 in /  4.57 mm
18:48 45.0 °F /  7.2 °C 44.2 °F /  6.8 °C 29.64 in /  1003.6 hPa SW 2.8 mph /  4.5 km/h 6.0 mph /  9.7 km/h 97 % 0.19 in /  4.83 mm
18:53 44.6 °F /  7 °C 43.8 °F /  6.6 °C 29.64 in /  1003.6 hPa West 5.8 mph /  9.3 km/h 11.5 mph /  18.5 km/h 97 % 0.18 in /  4.57 mm
18:58 44.2 °F /  6.8 °C 43.4 °F /  6.3 °C 29.64 in /  1003.6 hPa SW 3.5 mph /  5.6 km/h 6.9 mph /  11.1 km/h 97 % 0.18 in /  4.57 mm
19:03 44.1 °F /  6.7 °C 43.3 °F /  6.3 °C 29.64 in /  1003.6 hPa WNW 6.4 mph /  10.3 km/h 17.3 mph /  27.8 km/h 97 % 0.18 in /  4.57 mm
19:08 44.1 °F /  6.7 °C 43.6 °F /  6.4 °C 29.64 in /  1003.6 hPa WSW 8.0 mph /  12.9 km/h 13.8 mph /  22.2 km/h 98 % 0.17 in /  4.32 mm
19:13 44.3 °F /  6.8 °C 43.8 °F /  6.6 °C 29.64 in /  1003.6 hPa WSW 8.1 mph /  13 km/h 17.3 mph /  27.8 km/h 98 % 0.14 in /  3.56 mm
19:18 44.4 °F /  6.9 °C 43.9 °F /  6.6 °C 29.65 in /  1003.9 hPa SW 8.8 mph /  14.2 km/h 16.1 mph /  25.9 km/h 98 % 0.12 in /  3.05 mm
19:23 44.3 °F /  6.8 °C 43.8 °F /  6.6 °C 29.65 in /  1003.9 hPa WSW 6.3 mph /  10.1 km/h 11.5 mph /  18.5 km/h 98 % 0.09 in /  2.29 mm
19:28 44.2 °F /  6.8 °C 43.7 °F /  6.5 °C 29.65 in /  1003.9 hPa WSW 7.2 mph /  11.6 km/h 11.5 mph /  18.5 km/h 98 % 0.07 in /  1.78 mm
19:33 44.0 °F /  6.7 °C 43.5 °F /  6.4 °C 29.64 in /  1003.6 hPa WSW 9.3 mph /  15 km/h 12.7 mph /  20.4 km/h 98 % 0.06 in /  1.52 mm
19:38 43.8 °F /  6.6 °C 43.3 °F /  6.3 °C 29.64 in /  1003.6 hPa WSW 5.0 mph /  8 km/h 16.1 mph /  25.9 km/h 98 % 0.06 in /  1.52 mm
19:43 43.6 °F /  6.4 °C 43.1 °F /  6.2 °C 29.64 in /  1003.6 hPa West 3.9 mph /  6.3 km/h 12.7 mph /  20.4 km/h 98 % 0.05 in /  1.27 mm
19:48 43.4 °F /  6.3 °C 42.9 °F /  6.1 °C 29.65 in /  1003.9 hPa West 6.7 mph /  10.8 km/h 11.5 mph /  18.5 km/h 98 % 0.04 in /  1.02 mm
19:54 43.2 °F /  6.2 °C 42.7 °F /  5.9 °C 29.65 in /  1003.9 hPa SW 4.6 mph /  7.4 km/h 11.5 mph /  18.5 km/h 98 % 0.04 in /  1.02 mm
19:59 43.1 °F /  6.2 °C 42.3 °F /  5.7 °C 29.66 in /  1004.3 hPa West 3.3 mph /  5.3 km/h 11.5 mph /  18.5 km/h 97 % 0.03 in /  0.76 mm
20:04 42.9 °F /  6.1 °C 42.1 °F /  5.6 °C 29.66 in /  1004.3 hPa WNW 4.4 mph /  7.1 km/h 9.2 mph /  14.8 km/h 97 % 0.03 in /  0.76 mm
20:09 42.7 °F /  5.9 °C 41.9 °F /  5.5 °C 29.66 in /  1004.3 hPa WSW 3.2 mph /  5.1 km/h 12.7 mph /  20.4 km/h 97 % 0.02 in /  0.51 mm
20:14 42.5 °F /  5.8 °C 41.7 °F /  5.4 °C 29.66 in /  1004.3 hPa West 6.4 mph /  10.3 km/h 11.5 mph /  18.5 km/h 97 % 0.02 in /  0.51 mm
20:19 42.3 °F /  5.7 °C 41.5 °F /  5.3 °C 29.67 in /  1004.6 hPa WSW 7.3 mph /  11.7 km/h 12.7 mph /  20.4 km/h 97 % 0.02 in /  0.51 mm
20:24 42.0 °F /  5.6 °C 41.2 °F /  5.1 °C 29.67 in /  1004.6 hPa WNW 6.8 mph /  10.9 km/h 13.8 mph /  22.2 km/h 97 % 0.02 in /  0.51 mm
20:29 41.8 °F /  5.4 °C 41.0 °F /  5 °C 29.68 in /  1005 hPa West 5.2 mph /  8.4 km/h 12.7 mph /  20.4 km/h 97 % 0.03 in /  0.76 mm
20:34 41.5 °F /  5.3 °C 40.7 °F /  4.8 °C 29.67 in /  1004.6 hPa WNW 4.1 mph /  6.6 km/h 9.2 mph /  14.8 km/h 97 % 0.03 in /  0.76 mm
20:39 41.3 °F /  5.2 °C 40.5 °F /  4.7 °C 29.68 in /  1005 hPa West 6.5 mph /  10.5 km/h 11.5 mph /  18.5 km/h 97 % 0.04 in /  1.02 mm
20:44 41.1 °F /  5.1 °C 40.3 °F /  4.6 °C 29.68 in /  1005 hPa West 3.5 mph /  5.6 km/h 18.4 mph /  29.6 km/h 97 % 0.04 in /  1.02 mm
20:49 40.9 °F /  4.9 °C 40.1 °F /  4.5 °C 29.68 in /  1005 hPa WNW 1.9 mph /  3.1 km/h 3.5 mph /  5.6 km/h 97 % 0.04 in /  1.02 mm
20:54 40.6 °F /  4.8 °C 39.8 °F /  4.3 °C 29.68 in /  1005 hPa WNW 5.9 mph /  9.5 km/h 10.4 mph /  16.7 km/h 97 % 0.04 in /  1.02 mm
20:59 40.4 °F /  4.7 °C 39.6 °F /  4.2 °C 29.68 in /  1005 hPa WSW 2.3 mph /  3.7 km/h 9.2 mph /  14.8 km/h 97 % 0.04 in /  1.02 mm
21:04 40.2 °F /  4.6 °C 39.4 °F /  4.1 °C 29.69 in /  1005.3 hPa West 6.2 mph /  10 km/h 9.0 mph /  14.5 km/h 97 % 0.03 in /  0.76 mm
21:09 39.9 °F /  4.4 °C 39.1 °F /  3.9 °C 29.69 in /  1005.3 hPa West 6.3 mph /  10.1 km/h 10.4 mph /  16.7 km/h 97 % 0.03 in /  0.76 mm
21:15 39.7 °F /  4.3 °C 38.7 °F /  3.7 °C 29.69 in /  1005.3 hPa WSW 6.1 mph /  9.8 km/h 10.4 mph /  16.7 km/h 96 % 0.03 in /  0.76 mm
21:20 39.5 °F /  4.2 °C 38.5 °F /  3.6 °C 29.69 in /  1005.3 hPa WSW 7.1 mph /  11.4 km/h 10.4 mph /  16.7 km/h 96 % 0.02 in /  0.51 mm
21:25 39.3 °F /  4.1 °C 38.3 °F /  3.5 °C 29.69 in /  1005.3 hPa WSW 6.9 mph /  11.1 km/h 11.5 mph /  18.5 km/h 96 % 0.02 in /  0.51 mm
21:30 39.1 °F /  3.9 °C 38.1 °F /  3.4 °C 29.70 in /  1005.6 hPa West 5.7 mph /  9.2 km/h 10.4 mph /  16.7 km/h 96 % 0.02 in /  0.51 mm
21:35 38.9 °F /  3.8 °C 37.9 °F /  3.3 °C 29.71 in /  1006 hPa WSW 5.1 mph /  8.2 km/h 10.4 mph /  16.7 km/h 96 % 0.02 in /  0.51 mm
21:40 38.8 °F /  3.8 °C 37.8 °F /  3.2 °C 29.71 in /  1006 hPa WNW 7.4 mph /  11.9 km/h 11.5 mph /  18.5 km/h 96 % 0.01 in /  0.25 mm
21:45 38.7 °F /  3.7 °C 37.7 °F /  3.2 °C 29.71 in /  1006 hPa WSW 1.4 mph /  2.3 km/h 4.6 mph /  7.4 km/h 96 % 0.01 in /  0.25 mm
21:50 38.5 °F /  3.6 °C 37.5 °F /  3.1 °C 29.72 in /  1006.3 hPa WSW 1.3 mph /  2.1 km/h 7.0 mph /  11.3 km/h 96 % 0.01 in /  0.25 mm
21:55 38.3 °F /  3.5 °C 37.3 °F /  2.9 °C 29.72 in /  1006.3 hPa WNW 3.1 mph /  5 km/h 6.9 mph /  11.1 km/h 96 % 0.01 in /  0.25 mm
22:00 38.1 °F /  3.4 °C 36.8 °F /  2.7 °C 29.72 in /  1006.3 hPa WNW 5.9 mph /  9.5 km/h 10.4 mph /  16.7 km/h 95 % 0.01 in /  0.25 mm
22:05 38.0 °F /  3.3 °C 36.7 °F /  2.6 °C 29.73 in /  1006.7 hPa WNW 2.5 mph /  4 km/h 10.4 mph /  16.7 km/h 95 % 0.01 in /  0.25 mm
22:10 37.8 °F /  3.2 °C 36.5 °F /  2.5 °C 29.73 in /  1006.7 hPa WNW 4.4 mph /  7.1 km/h 10.0 mph /  16.1 km/h 95 % 0.01 in /  0.25 mm
22:15 37.7 °F /  3.2 °C 36.4 °F /  2.4 °C 29.73 in /  1006.7 hPa WNW 3.8 mph /  6.1 km/h 10.4 mph /  16.7 km/h 95 % 0.01 in /  0.25 mm
22:20 37.6 °F /  3.1 °C 36.3 °F /  2.4 °C 29.73 in /  1006.7 hPa West 11.0 mph /  17.7 km/h 11.5 mph /  18.5 km/h 95 % 0.01 in /  0.25 mm
22:25 37.4 °F /  3 °C 36.1 °F /  2.3 °C 29.74 in /  1007 hPa NW 8.1 mph /  13 km/h 11.5 mph /  18.5 km/h 95 % 0.01 in /  0.25 mm
22:30 37.3 °F /  2.9 °C 35.7 °F /  2.1 °C 29.74 in /  1007 hPa WNW 5.1 mph /  8.2 km/h 6.9 mph /  11.1 km/h 94 % 0.00 in /  0 mm
22:35 37.2 °F /  2.9 °C 35.6 °F /  2 °C 29.75 in /  1007.3 hPa NW 3.9 mph /  6.3 km/h 9.2 mph /  14.8 km/h 94 % 0.00 in /  0 mm
22:40 37.1 °F /  2.8 °C 35.5 °F /  1.9 °C 29.75 in /  1007.3 hPa NW 4.5 mph /  7.2 km/h 8.1 mph /  13 km/h 94 % 0.00 in /  0 mm
22:46 37.0 °F /  2.8 °C 35.4 °F /  1.9 °C 29.76 in /  1007.7 hPa NW 3.5 mph /  5.6 km/h 8.1 mph /  13 km/h 94 % 0.00 in /  0 mm
22:51 37.0 °F /  2.8 °C 35.4 °F /  1.9 °C 29.76 in /  1007.7 hPa WNW 2.0 mph /  3.2 km/h 8.0 mph /  12.9 km/h 94 % 0.00 in /  0 mm
22:56 36.9 °F /  2.7 °C 35.3 °F /  1.8 °C 29.77 in /  1008 hPa NNW 5.0 mph /  8 km/h 10.0 mph /  16.1 km/h 94 % 0.00 in /  0 mm
23:01 36.8 °F /  2.7 °C 35.2 °F /  1.8 °C 29.76 in /  1007.7 hPa NW 5.1 mph /  8.2 km/h 5.1 mph /  8.2 km/h 94 % 0.00 in /  0 mm
23:06 36.6 °F /  2.6 °C 35.0 °F /  1.7 °C 29.77 in /  1008 hPa North 3.0 mph /  4.8 km/h 5.0 mph /  8 km/h 94 % 0.00 in /  0 mm
23:11 36.5 °F /  2.5 °C 34.7 °F /  1.5 °C 29.78 in /  1008.4 hPa North 6.5 mph /  10.5 km/h 11.5 mph /  18.5 km/h 93 % 0.00 in /  0 mm
23:16 36.3 °F /  2.4 °C 34.5 °F /  1.4 °C 29.77 in /  1008 hPa North 5.9 mph /  9.5 km/h 10.4 mph /  16.7 km/h 93 % 0.00 in /  0 mm
23:21 36.2 °F /  2.3 °C 34.4 °F /  1.3 °C 29.79 in /  1008.7 hPa NNW 5.2 mph /  8.4 km/h 13.0 mph /  20.9 km/h 93 % 0.00 in /  0 mm
23:26 36.1 °F /  2.3 °C 34.3 °F /  1.3 °C 29.79 in /  1008.7 hPa NNW 6.7 mph /  10.8 km/h 10.4 mph /  16.7 km/h 93 % 0.00 in /  0 mm
23:31 35.9 °F /  2.2 °C 34.1 °F /  1.2 °C 29.78 in /  1008.4 hPa NNE 6.0 mph /  9.7 km/h 11.5 mph /  18.5 km/h 93 % 0.00 in /  0 mm
23:36 35.8 °F /  2.1 °C 33.7 °F /  0.9 °C 29.78 in /  1008.4 hPa North 4.1 mph /  6.6 km/h 10.4 mph /  16.7 km/h 92 % 0.00 in /  0 mm
23:41 35.6 °F /  2 °C 33.5 °F /  0.8 °C 29.79 in /  1008.7 hPa WNW 4.7 mph /  7.6 km/h 8.1 mph /  13 km/h 92 % 0.00 in /  0 mm
23:46 35.5 °F /  1.9 °C 33.4 °F /  0.8 °C 29.80 in /  1009 hPa NNW 6.9 mph /  11.1 km/h 13.8 mph /  22.2 km/h 92 % 0.00 in /  0 mm
23:51 35.4 °F /  1.9 °C 33.3 °F /  0.7 °C 29.80 in /  1009 hPa NNW 6.3 mph /  10.1 km/h 13.8 mph /  22.2 km/h 92 % 0.00 in /  0 mm
23:56 35.2 °F /  1.8 °C 32.8 °F /  0.4 °C 29.81 in /  1009.4 hPa NNW 5.6 mph /  9 km/h 11.5 mph /  18.5 km/h 91 % 0.00 in /  0 mm
Crab Meadow Weather
Compliments of Weather Underground - 3 mb

Script developed by  Jim McMurry - jmcmurry@mwt.net Adapted for the template by  Wim van der Kuil - Leuven-Template.eu

Weather Terms: Downburst - A strong downdraft from a thunderstorm resulting in an outward burst of damaging winds on or near the ground. Downburst winds are often 50 to 100 mph and in a few cases, 100 to 150 mph. They can do as much damage as a small tornado.